createdAt,value
2023-09-27T00:02:05.843Z,61.43
2023-09-27T00:04:33.597Z,61.40
2023-09-27T00:07:01.290Z,61.01
2023-09-27T00:09:32.614Z,61.04
2023-09-27T00:12:04.984Z,60.92
2023-09-27T00:14:33.076Z,61.06
2023-09-27T00:17:00.719Z,60.74
2023-09-27T00:19:28.463Z,60.68
2023-09-27T00:21:56.221Z,60.85
2023-09-27T00:24:24.124Z,60.99
2023-09-27T00:26:53.379Z,60.76
2023-09-27T00:29:21.173Z,61.02
2023-09-27T00:31:48.932Z,61.51
2023-09-27T00:34:16.937Z,61.27
2023-09-27T00:36:44.557Z,61.98
2023-09-27T00:39:15.095Z,62.09
2023-09-27T00:41:43.179Z,62.09
2023-09-27T00:44:12.158Z,61.53
2023-09-27T00:46:41.072Z,61.71
2023-09-27T00:49:09.532Z,61.35
2023-09-27T00:51:37.606Z,60.92
2023-09-27T00:54:06.480Z,60.91
2023-09-27T00:56:35.292Z,60.92
2023-09-27T00:59:04.014Z,60.46
2023-09-27T01:01:35.002Z,60.30
2023-09-27T01:04:03.347Z,60.60
2023-09-27T01:06:31.547Z,60.72
2023-09-27T01:08:59.118Z,60.97
2023-09-27T01:11:27.111Z,61.16
2023-09-27T01:13:54.850Z,62.31
2023-09-27T01:16:22.650Z,62.36
2023-09-27T01:18:51.640Z,61.86
2023-09-27T01:21:20.472Z,61.60
2023-09-27T01:23:51.447Z,61.27
2023-09-27T01:26:19.764Z,61.65
2023-09-27T01:28:47.950Z,61.53
2023-09-27T01:31:15.809Z,61.76
2023-09-27T01:33:43.488Z,61.69
2023-09-27T01:36:12.795Z,62.05
2023-09-27T01:38:40.651Z,61.95
2023-09-27T01:41:09.706Z,62.02
2023-09-27T01:43:37.295Z,61.91
2023-09-27T01:46:05.484Z,61.43
2023-09-27T01:48:33.421Z,61.48
2023-09-27T01:51:01.006Z,61.52
2023-09-27T01:53:28.749Z,61.26
2023-09-27T01:55:56.488Z,61.97
2023-09-27T01:58:25.573Z,62.29
2023-09-27T02:00:53.217Z,61.69
2023-09-27T02:03:21.193Z,61.41
2023-09-27T02:05:48.983Z,61.64
2023-09-27T02:08:17.527Z,62.06
2023-09-27T02:10:45.252Z,62.10
2023-09-27T02:13:13.074Z,61.83
2023-09-27T02:15:42.031Z,61.89
2023-09-27T02:18:09.967Z,61.81
2023-09-27T02:20:37.982Z,61.82
2023-09-27T02:23:05.738Z,62.27
2023-09-27T02:25:33.536Z,62.41
2023-09-27T02:28:01.405Z,62.63
2023-09-27T02:30:29.342Z,63.24
2023-09-27T02:32:58.659Z,63.86
2023-09-27T02:35:26.704Z,63.89
2023-09-27T02:37:54.627Z,64.53
2023-09-27T02:40:22.769Z,63.73
2023-09-27T02:42:50.329Z,63.06
2023-09-27T02:45:18.004Z,62.63
2023-09-27T02:47:47.427Z,62.28
2023-09-27T02:50:17.547Z,62.90
2023-09-27T02:52:45.875Z,63.01
2023-09-27T02:55:15.831Z,62.62
2023-09-27T02:57:44.264Z,62.64
2023-09-27T03:00:12.946Z,62.73
2023-09-27T03:02:40.879Z,62.83
2023-09-27T03:05:10.641Z,63.31
2023-09-27T03:07:40.389Z,63.44
2023-09-27T03:10:11.729Z,63.39
2023-09-27T03:12:41.515Z,63.51
2023-09-27T03:15:12.694Z,63.20
2023-09-27T03:17:41.694Z,63.35
2023-09-27T03:20:15.752Z,63.98
2023-09-27T03:22:45.507Z,64.04
2023-09-27T03:25:13.146Z,64.04
2023-09-27T03:27:41.123Z,64.23
2023-09-27T03:30:09.852Z,64.40
2023-09-27T03:32:37.727Z,64.47
2023-09-27T03:35:08.289Z,64.61
2023-09-27T03:37:36.555Z,64.34
2023-09-27T03:40:14.137Z,64.65
2023-09-27T03:42:44.052Z,64.59
2023-09-27T03:45:12.144Z,64.40
2023-09-27T03:47:40.334Z,65.15
2023-09-27T03:50:08.696Z,64.68
2023-09-27T03:52:36.649Z,64.21
2023-09-27T03:55:06.314Z,64.73
2023-09-27T03:57:34.544Z,64.29
2023-09-27T04:00:02.356Z,64.15
2023-09-27T04:02:32.267Z,64.51
2023-09-27T04:05:00.184Z,64.62
2023-09-27T04:07:27.827Z,64.58
2023-09-27T04:09:55.517Z,65.25
2023-09-27T04:12:24.583Z,64.54
2023-09-27T04:14:52.265Z,65.86
2023-09-27T04:17:20.083Z,66.74
2023-09-27T04:19:47.759Z,66.26
2023-09-27T04:22:15.438Z,65.88
2023-09-27T04:24:43.097Z,65.57
2023-09-27T04:27:10.959Z,65.54
2023-09-27T04:29:40.241Z,66.41
2023-09-27T04:32:07.857Z,66.13
2023-09-27T04:34:35.819Z,66.45
2023-09-27T04:37:03.466Z,66.19
2023-09-27T04:39:32.539Z,66.21
2023-09-27T04:42:00.216Z,66.17
2023-09-27T04:44:29.434Z,66.68
2023-09-27T04:46:59.032Z,66.85
2023-09-27T04:49:27.013Z,66.71
2023-09-27T04:51:54.631Z,66.78
2023-09-27T04:54:22.472Z,67.33
2023-09-27T04:56:50.417Z,67.28
2023-09-27T04:59:18.251Z,66.52
2023-09-27T05:01:45.962Z,66.37
2023-09-27T05:04:14.985Z,66.15
2023-09-27T05:06:43.403Z,66.58
2023-09-27T05:09:12.689Z,67.33
2023-09-27T05:11:41.576Z,68.27
2023-09-27T05:14:09.311Z,69.05
2023-09-27T05:16:38.173Z,67.98
2023-09-27T05:19:06.209Z,66.88
2023-09-27T05:21:35.380Z,67.43
2023-09-27T05:24:03.350Z,67.32
2023-09-27T05:26:31.024Z,66.99
2023-09-27T05:28:59.261Z,68.55
2023-09-27T05:31:27.072Z,68.42
2023-09-27T05:33:54.705Z,68.23
2023-09-27T05:36:22.282Z,68.60
2023-09-27T05:38:52.252Z,68.71
2023-09-27T05:41:22.129Z,68.76
2023-09-27T05:43:49.830Z,68.47
2023-09-27T05:46:17.439Z,68.23
2023-09-27T05:48:45.636Z,69.20
2023-09-27T05:51:18.453Z,68.90
2023-09-27T05:53:48.111Z,69.15
2023-09-27T05:56:17.296Z,69.86
2023-09-27T05:58:44.958Z,69.90
2023-09-27T06:01:14.136Z,69.71
2023-09-27T06:03:44.106Z,68.80
2023-09-27T06:06:11.966Z,68.82
2023-09-27T06:08:39.673Z,68.87
2023-09-27T06:11:10.530Z,68.50
2023-09-27T06:13:40.018Z,68.58
2023-09-27T06:16:15.407Z,68.51
2023-09-27T06:18:43.086Z,69.02
2023-09-27T06:21:10.822Z,68.86
2023-09-27T06:23:42.388Z,68.09
2023-09-27T06:26:11.025Z,68.40
2023-09-27T06:28:40.082Z,67.87
2023-09-27T06:31:08.272Z,67.75
2023-09-27T06:33:39.544Z,69.09
2023-09-27T06:36:08.821Z,69.42
2023-09-27T06:38:38.143Z,70.06
2023-09-27T06:41:06.442Z,69.63
2023-09-27T06:43:34.284Z,69.73
2023-09-27T06:46:11.747Z,67.75
2023-09-27T06:48:42.449Z,67.96
2023-09-27T06:51:12.611Z,67.70
2023-09-27T06:53:40.566Z,67.36
2023-09-27T06:56:08.264Z,68.93
2023-09-27T06:58:35.891Z,68.14
2023-09-27T07:01:05.516Z,69.55
2023-09-27T07:03:35.281Z,68.91
2023-09-27T07:06:03.736Z,67.80
2023-09-27T07:08:31.995Z,67.17
2023-09-27T07:11:05.086Z,68.01
2023-09-27T07:13:32.733Z,68.32
2023-09-27T07:16:00.347Z,69.36
2023-09-27T07:18:29.383Z,68.78
2023-09-27T07:20:57.499Z,68.33
2023-09-27T07:23:24.545Z,67.80
2023-09-27T07:25:53.719Z,68.77
2023-09-27T07:28:21.274Z,67.67
2023-09-27T07:30:48.889Z,66.56
2023-09-27T07:33:18.516Z,66.40
2023-09-27T07:35:52.975Z,67.24
2023-09-27T07:38:20.848Z,67.95
2023-09-27T07:40:48.901Z,68.01
2023-09-27T07:43:17.005Z,68.19
2023-09-27T07:45:45.786Z,67.91
2023-09-27T07:48:13.684Z,66.71
2023-09-27T07:50:41.574Z,66.63
2023-09-27T07:53:10.705Z,66.45
2023-09-27T07:55:44.709Z,66.17
2023-09-27T07:58:13.606Z,64.71
2023-09-27T08:00:41.687Z,64.00
2023-09-27T08:03:10.188Z,63.33
2023-09-27T08:05:44.089Z,63.57
2023-09-27T08:08:14.667Z,63.24
2023-09-27T08:10:44.346Z,63.48
2023-09-27T08:13:13.816Z,63.34
2023-09-27T08:15:42.399Z,63.26
2023-09-27T08:18:11.000Z,63.07
2023-09-27T08:20:39.073Z,63.73
2023-09-27T08:23:06.926Z,62.52
2023-09-27T08:25:38.235Z,62.99
2023-09-27T08:28:07.022Z,61.53
2023-09-27T08:30:34.754Z,61.85
2023-09-27T08:33:03.041Z,61.54
2023-09-27T08:35:31.176Z,61.37
2023-09-27T08:37:58.897Z,61.40
2023-09-27T08:40:26.645Z,61.75
2023-09-27T08:42:59.713Z,61.68
2023-09-27T08:45:28.666Z,61.62
2023-09-27T08:47:56.462Z,61.15
2023-09-27T08:50:25.121Z,61.18
2023-09-27T08:52:53.536Z,61.60
2023-09-27T08:55:21.735Z,60.78
2023-09-27T08:57:50.710Z,60.95
2023-09-27T09:00:23.173Z,61.17
2023-09-27T09:02:53.775Z,61.14
2023-09-27T09:05:23.546Z,61.19
2023-09-27T09:07:51.779Z,61.09
2023-09-27T09:10:19.568Z,61.42
2023-09-27T09:12:48.502Z,61.38
2023-09-27T09:15:36.699Z,61.39
2023-09-27T09:18:07.623Z,61.85
2023-09-27T09:20:50.470Z,61.55
2023-09-27T09:23:32.232Z,61.53
2023-09-27T09:26:00.433Z,61.97
2023-09-27T09:28:28.317Z,61.04
2023-09-27T09:30:57.269Z,61.29
2023-09-27T09:33:26.450Z,61.08
2023-09-27T09:35:54.330Z,61.07
2023-09-27T09:38:27.167Z,61.49
2023-09-27T09:40:55.896Z,61.44
2023-09-27T09:43:34.622Z,61.52
2023-09-27T09:46:07.304Z,61.26
2023-09-27T09:48:36.047Z,61.31
2023-09-27T09:51:08.789Z,60.94
2023-09-27T09:53:41.281Z,59.94
2023-09-27T09:58:45.750Z,60.31
2023-09-27T10:01:20.688Z,60.44
2023-09-27T10:03:49.471Z,60.77
2023-09-27T10:06:26.408Z,60.44
2023-09-27T10:09:02.417Z,60.06
2023-09-27T10:11:30.608Z,60.35
2023-09-27T10:13:58.774Z,60.05
2023-09-27T10:16:27.817Z,59.68
2023-09-27T10:18:56.204Z,59.77
2023-09-27T10:21:24.728Z,59.11
2023-09-27T10:24:00.192Z,59.06
2023-09-27T10:26:37.164Z,59.09
2023-09-27T10:29:14.781Z,58.74
2023-09-27T10:32:21.105Z,58.48
2023-09-27T10:34:53.942Z,58.45
2023-09-27T10:37:57.808Z,58.13
2023-09-27T10:40:26.266Z,57.48
2023-09-27T10:42:53.974Z,58.35
2023-09-27T10:45:22.407Z,57.96
2023-09-27T10:47:51.156Z,57.32
2023-09-27T10:50:32.119Z,57.07
2023-09-27T10:53:00.958Z,57.72
2023-09-27T10:55:43.015Z,56.42
2023-09-27T10:58:13.642Z,56.39
2023-09-27T11:00:52.360Z,55.89
2023-09-27T11:03:20.465Z,55.77
2023-09-27T11:05:49.730Z,55.81
2023-09-27T11:08:22.902Z,55.39
2023-09-27T11:10:53.628Z,55.00
2023-09-27T11:13:22.288Z,51.69
2023-09-27T11:15:49.936Z,53.68
2023-09-27T11:18:17.609Z,53.27
2023-09-27T11:20:45.531Z,53.56
2023-09-27T11:23:14.603Z,53.55
2023-09-27T11:25:44.758Z,53.26
2023-09-27T11:28:16.408Z,53.11
2023-09-27T11:30:44.111Z,53.33
2023-09-27T11:33:14.419Z,52.29
2023-09-27T11:35:49.440Z,52.85
2023-09-27T11:40:47.438Z,52.71
2023-09-27T11:43:15.004Z,51.93
2023-09-27T11:45:47.399Z,50.03
2023-09-27T11:48:15.776Z,51.68
2023-09-27T11:50:43.958Z,50.31
2023-09-27T11:53:12.131Z,50.90
2023-09-27T11:55:43.649Z,51.51
2023-09-27T11:58:11.277Z,50.59
2023-09-27T12:00:38.847Z,49.57
2023-09-27T12:03:07.016Z,50.47
2023-09-27T12:05:36.971Z,50.88
2023-09-27T12:08:05.232Z,50.66
2023-09-27T12:10:33.058Z,50.80
2023-09-27T12:13:02.101Z,50.58
2023-09-27T12:15:30.543Z,50.13
2023-09-27T12:17:58.210Z,50.81
2023-09-27T12:20:39.427Z,50.95
2023-09-27T12:23:10.317Z,50.90
2023-09-27T12:25:38.617Z,50.40
2023-09-27T12:28:07.870Z,50.33
2023-09-27T12:30:35.506Z,50.72
2023-09-27T12:33:03.396Z,49.98
2023-09-27T12:35:31.319Z,49.37
2023-09-27T12:38:00.550Z,49.01
2023-09-27T12:40:28.093Z,48.65
2023-09-27T12:42:55.638Z,49.03
2023-09-27T12:45:24.518Z,47.74
2023-09-27T12:47:52.222Z,48.67
2023-09-27T12:50:25.130Z,48.65
2023-09-27T12:52:52.764Z,47.99
2023-09-27T12:55:21.594Z,47.63
2023-09-27T12:57:50.862Z,48.12
2023-09-27T13:00:18.909Z,47.59
2023-09-27T13:02:48.070Z,47.87
2023-09-27T13:05:16.583Z,47.24
2023-09-27T13:07:44.248Z,47.30
2023-09-27T13:10:11.910Z,47.50
2023-09-27T13:12:42.316Z,47.54
2023-09-27T13:15:11.931Z,47.69
2023-09-27T13:17:39.673Z,47.10
2023-09-27T13:20:11.318Z,47.71
2023-09-27T13:22:39.399Z,48.39
2023-09-27T13:25:08.095Z,48.20
2023-09-27T13:27:35.918Z,48.28
2023-09-27T13:30:04.342Z,48.46
2023-09-27T13:32:32.007Z,47.43
2023-09-27T13:34:59.809Z,48.35
2023-09-27T13:37:28.773Z,48.17
2023-09-27T13:39:57.370Z,47.81
2023-09-27T13:42:25.016Z,47.63
2023-09-27T13:44:53.391Z,48.22
2023-09-27T13:47:21.069Z,48.29
2023-09-27T13:49:49.101Z,48.11
2023-09-27T13:52:16.671Z,48.10
2023-09-27T13:54:45.600Z,48.23
2023-09-27T13:57:13.181Z,48.25
2023-09-27T13:59:41.397Z,48.73
2023-09-27T14:02:09.002Z,48.76
2023-09-27T14:04:36.658Z,49.04
2023-09-27T14:07:04.480Z,48.89
2023-09-27T14:09:32.128Z,49.47
2023-09-27T14:12:01.095Z,49.11
2023-09-27T14:14:29.247Z,48.97
2023-09-27T14:16:58.948Z,49.33
2023-09-27T14:19:26.708Z,49.05
2023-09-27T14:21:54.782Z,49.22
2023-09-27T14:24:24.322Z,49.21
2023-09-27T14:26:52.496Z,49.58
2023-09-27T14:29:29.718Z,48.83
2023-09-27T14:32:05.480Z,49.26
2023-09-27T14:34:41.201Z,49.30
2023-09-27T14:37:10.536Z,49.49
2023-09-27T14:39:38.169Z,49.74
2023-09-27T14:42:06.478Z,49.34
2023-09-27T14:44:35.397Z,49.99
2023-09-27T14:47:03.857Z,49.68
2023-09-27T14:49:31.414Z,49.69
2023-09-27T14:51:58.972Z,49.92
2023-09-27T14:54:26.531Z,49.88
2023-09-27T14:56:54.083Z,49.91
2023-09-27T14:59:21.639Z,49.89
2023-09-27T15:01:50.628Z,50.26
2023-09-27T15:04:18.443Z,50.28
2023-09-27T15:06:46.584Z,50.18
2023-09-27T15:09:14.125Z,50.37
2023-09-27T15:11:41.731Z,50.45
2023-09-27T15:14:09.301Z,50.77
2023-09-27T15:16:37.494Z,50.17
2023-09-27T15:19:06.516Z,50.28
2023-09-27T15:21:34.084Z,50.35
2023-09-27T15:24:02.255Z,50.10
2023-09-27T15:26:29.996Z,50.42
2023-09-27T15:28:57.729Z,50.42
2023-09-27T15:31:25.373Z,51.27
2023-09-27T15:33:53.141Z,50.77
2023-09-27T15:36:22.217Z,50.68
2023-09-27T15:38:49.862Z,50.38
2023-09-27T15:41:17.693Z,51.14
2023-09-27T15:43:45.424Z,50.60
2023-09-27T15:46:16.126Z,50.37
2023-09-27T15:48:44.999Z,50.67
2023-09-27T15:51:16.579Z,51.27
2023-09-27T15:53:45.612Z,50.85
2023-09-27T15:56:13.279Z,51.70
2023-09-27T15:58:40.886Z,52.40
2023-09-27T16:01:09.160Z,51.29
2023-09-27T16:03:39.171Z,50.99
2023-09-27T16:06:06.896Z,51.14
2023-09-27T16:08:34.466Z,52.85
2023-09-27T16:11:04.060Z,54.55
2023-09-27T16:13:31.669Z,52.34
2023-09-27T16:15:59.532Z,54.35
2023-09-27T16:18:27.147Z,54.85
2023-09-27T16:20:54.732Z,52.89
2023-09-27T16:23:22.352Z,52.62
2023-09-27T16:25:50.422Z,53.69
2023-09-27T16:28:19.854Z,53.93
2023-09-27T16:30:48.137Z,54.44
2023-09-27T16:33:15.933Z,55.43
2023-09-27T16:35:43.593Z,55.19
2023-09-27T16:38:11.486Z,55.61
2023-09-27T16:40:40.986Z,56.18
2023-09-27T16:43:08.827Z,56.24
2023-09-27T16:45:39.530Z,57.35
2023-09-27T16:48:07.713Z,56.74
2023-09-27T16:50:35.432Z,56.52
2023-09-27T16:53:03.338Z,57.10
2023-09-27T16:55:30.973Z,57.06
2023-09-27T16:57:58.911Z,57.30
2023-09-27T17:00:27.214Z,57.44
2023-09-27T17:02:56.405Z,58.16
2023-09-27T17:05:24.147Z,56.86
2023-09-27T17:07:51.807Z,57.26
2023-09-27T17:10:19.600Z,57.02
2023-09-27T17:12:47.463Z,57.13
2023-09-27T17:15:15.124Z,57.41
2023-09-27T17:17:42.908Z,56.90
2023-09-27T17:20:12.471Z,57.59
2023-09-27T17:22:40.407Z,58.80
2023-09-27T17:25:09.879Z,58.22
2023-09-27T17:27:37.737Z,57.74
2023-09-27T17:30:06.481Z,57.71
2023-09-27T17:32:34.265Z,56.90
2023-09-27T17:35:02.116Z,56.74
2023-09-27T17:37:31.865Z,57.51
2023-09-27T17:39:59.918Z,57.29
2023-09-27T17:42:27.572Z,56.87
2023-09-27T17:44:55.267Z,56.76
2023-09-27T17:47:23.151Z,57.08
2023-09-27T17:49:51.017Z,56.60
2023-09-27T17:52:18.662Z,56.54
2023-09-27T17:54:48.078Z,56.83
2023-09-27T17:57:17.081Z,56.88
2023-09-27T17:59:46.486Z,57.21
2023-09-27T18:02:14.249Z,56.83
2023-09-27T18:04:42.142Z,56.64
2023-09-27T18:07:09.954Z,56.82
2023-09-27T18:09:38.021Z,57.28
2023-09-27T18:12:08.164Z,57.32
2023-09-27T18:14:36.046Z,57.60
2023-09-27T18:17:03.967Z,57.99
2023-09-27T18:19:31.707Z,58.30
2023-09-27T18:21:59.547Z,58.44
2023-09-27T18:24:27.257Z,58.17
2023-09-27T18:26:55.503Z,58.42
2023-09-27T18:29:24.798Z,58.50
2023-09-27T18:31:52.546Z,58.79
2023-09-27T18:34:20.477Z,58.31
2023-09-27T18:36:49.577Z,58.36
2023-09-27T18:39:17.248Z,58.68
2023-09-27T18:41:45.168Z,59.02
2023-09-27T18:44:13.743Z,58.81
2023-09-27T18:46:43.037Z,58.88
2023-09-27T18:49:10.839Z,59.19
2023-09-27T18:51:38.507Z,59.03
2023-09-27T18:54:08.150Z,59.08
2023-09-27T18:56:36.649Z,58.61
2023-09-27T18:59:05.359Z,59.12
2023-09-27T19:01:33.396Z,58.78
2023-09-27T19:04:03.359Z,58.43
2023-09-27T19:06:32.595Z,58.69
2023-09-27T19:09:00.387Z,58.97
2023-09-27T19:11:31.316Z,58.41
2023-09-27T19:13:59.034Z,58.11
2023-09-27T19:16:30.560Z,58.26
2023-09-27T19:18:58.439Z,58.23
2023-09-27T19:21:27.388Z,58.04
2023-09-27T19:23:55.195Z,58.19
2023-09-27T19:26:24.160Z,58.39
2023-09-27T19:28:52.383Z,58.13
2023-09-27T19:31:20.083Z,58.02
2023-09-27T19:33:48.581Z,58.17
2023-09-27T19:36:20.470Z,58.30
2023-09-27T19:38:50.414Z,58.36
2023-09-27T19:41:18.146Z,58.59
2023-09-27T19:43:45.956Z,58.63
2023-09-27T19:46:13.696Z,58.64
2023-09-27T19:48:42.999Z,58.67
2023-09-27T19:51:12.057Z,58.76
2023-09-27T19:53:39.893Z,58.41
2023-09-27T19:56:08.868Z,58.99
2023-09-27T19:58:36.514Z,59.17
2023-09-27T20:01:04.951Z,58.99
2023-09-27T20:03:32.591Z,59.10
2023-09-27T20:06:00.190Z,59.03
2023-09-27T20:08:27.770Z,58.62
2023-09-27T20:10:55.927Z,59.17
2023-09-27T20:13:24.904Z,59.22
2023-09-27T20:15:52.496Z,59.34
2023-09-27T20:18:20.158Z,59.19
2023-09-27T20:20:47.798Z,59.46
2023-09-27T20:23:15.557Z,59.76
2023-09-27T20:25:44.465Z,59.53
2023-09-27T20:28:12.612Z,59.52
2023-09-27T20:30:41.883Z,59.30
2023-09-27T20:33:09.936Z,59.34
2023-09-27T20:35:38.077Z,59.30
2023-09-27T20:38:09.259Z,59.27
2023-09-27T20:40:37.656Z,59.21
2023-09-27T20:43:05.714Z,59.20
2023-09-27T20:45:33.718Z,58.53
2023-09-27T20:48:02.757Z,57.98
2023-09-27T20:50:30.532Z,57.51
2023-09-27T20:52:57.286Z,58.07
2023-09-27T20:55:25.164Z,58.19
2023-09-27T20:57:52.753Z,58.44
2023-09-27T21:00:23.565Z,58.60
2023-09-27T21:02:51.469Z,58.18
2023-09-27T21:05:20.426Z,58.44
2023-09-27T21:07:50.625Z,58.33
2023-09-27T21:10:18.286Z,58.59
2023-09-27T21:12:46.172Z,58.74
2023-09-27T21:15:13.752Z,58.75
2023-09-27T21:17:41.469Z,58.40
2023-09-27T21:20:10.409Z,58.37
2023-09-27T21:22:39.538Z,58.28
2023-09-27T21:25:08.093Z,57.61
2023-09-27T21:27:36.005Z,57.33
2023-09-27T21:30:04.828Z,57.67
2023-09-27T21:32:33.008Z,57.91
2023-09-27T21:35:01.233Z,58.30
2023-09-27T21:37:28.883Z,57.98
2023-09-27T21:39:58.392Z,57.90
2023-09-27T21:42:25.959Z,58.10
2023-09-27T21:44:53.701Z,58.18
2023-09-27T21:47:21.655Z,58.19
2023-09-27T21:49:49.604Z,58.14
2023-09-27T21:52:17.782Z,57.91
2023-09-27T21:54:45.804Z,58.37
2023-09-27T21:57:16.063Z,58.18
2023-09-27T21:59:43.697Z,57.67
2023-09-27T22:02:12.724Z,57.38
2023-09-27T22:04:40.565Z,57.36
2023-09-27T22:07:08.532Z,57.13
2023-09-27T22:09:36.468Z,57.38
2023-09-27T22:12:05.230Z,57.65
2023-09-27T22:14:36.244Z,57.52
2023-09-27T22:17:09.289Z,57.54
2023-09-27T22:19:37.688Z,57.19
2023-09-27T22:22:05.646Z,56.74
2023-09-27T22:24:33.252Z,57.15
2023-09-27T22:27:02.101Z,56.83
2023-09-27T22:29:32.805Z,56.70
2023-09-27T22:32:02.715Z,56.47
2023-09-27T22:34:38.090Z,56.40
2023-09-27T22:37:08.837Z,56.70
2023-09-27T22:39:41.007Z,56.67
2023-09-27T22:42:13.851Z,56.72
2023-09-27T22:44:42.490Z,56.35
2023-09-27T22:47:11.720Z,56.25
2023-09-27T22:49:41.182Z,56.31
2023-09-27T22:52:10.264Z,56.16
2023-09-27T22:54:39.466Z,56.04
2023-09-27T22:57:07.414Z,56.25
2023-09-27T22:59:38.984Z,55.83
2023-09-27T23:02:10.483Z,55.74
2023-09-27T23:04:42.361Z,55.78
2023-09-27T23:07:17.782Z,55.64
2023-09-27T23:09:48.131Z,55.98
2023-09-27T23:12:19.818Z,55.89
2023-09-27T23:15:10.976Z,56.04
2023-09-27T23:18:01.269Z,56.27
2023-09-27T23:20:32.283Z,56.12
2023-09-27T23:23:07.354Z,56.20
2023-09-27T23:25:53.585Z,56.16
2023-09-27T23:28:31.124Z,56.05
2023-09-27T23:31:09.539Z,55.92
2023-09-27T23:33:42.637Z,56.25
2023-09-27T23:36:24.222Z,56.28
2023-09-27T23:38:58.002Z,55.77
2023-09-27T23:41:30.858Z,55.93
2023-09-27T23:44:01.209Z,55.65
2023-09-27T23:46:30.151Z,55.79
2023-09-27T23:49:02.682Z,55.73
2023-09-27T23:51:31.689Z,55.44
2023-09-27T23:54:00.654Z,55.72
2023-09-27T23:56:30.807Z,55.84
2023-09-27T23:59:08.049Z,55.99
